Rib Lake, Wisconsin
Current Conditions -  °F | °C
As of 8:35 PM on Saturday 25 Oct 2014 (Local Time) from KMDZ Reporting Station
Clear Clear  
Wind Chill: 41°   Ceiling: Unl
Heat Index: 44°   Visibility: 10mi
Dew Point: 28°   Wind: 6mph
Humidity: 52%   Direction: 290°WNW
Pressure: 29.96"   Gusts: NA
Location:  45.32°N, 90.21°W
Report Text: KMDZ 260135Z AUTO 29005KT 10SM CLR 07/M02 A2996 RMK AO2 T00691023
Loading
Personal Weather Stations






























Interactive Weather Map
Tropical Storm Tracking
New forecast layout! Learn more

10-Day Weather Forecast

Advertisements
Track Severe Weather on mobile